sensor_id;sensor_type;location;lat;lon;timestamp;pressure;altitude;pressure_sealevel;temperature;humidity
80323;BME280;69636;52.372;13.610;2023-09-19T00:00:25;100380.09;;;17.73;98.96
80323;BME280;69636;52.372;13.610;2023-09-19T00:02:53;100384.41;;;17.67;99.68
80323;BME280;69636;52.372;13.610;2023-09-19T00:05:22;100381.94;;;17.59;99.91
80323;BME280;69636;52.372;13.610;2023-09-19T00:07:50;100379.47;;;17.57;100.00
80323;BME280;69636;52.372;13.610;2023-09-19T00:10:17;100365.41;;;17.82;98.46
80323;BME280;69636;52.372;13.610;2023-09-19T00:12:44;100367.53;;;17.67;99.03
80323;BME280;69636;52.372;13.610;2023-09-19T00:15:12;100373.88;;;17.59;99.89
80323;BME280;69636;52.372;13.610;2023-09-19T00:17:40;100375.13;;;17.56;99.76
80323;BME280;69636;52.372;13.610;2023-09-19T00:20:08;100372.44;;;17.50;100.00
80323;BME280;69636;52.372;13.610;2023-09-19T00:22:39;100368.31;;;17.47;99.99
80323;BME280;69636;52.372;13.610;2023-09-19T00:25:07;100368.53;;;17.52;99.62
80323;BME280;69636;52.372;13.610;2023-09-19T00:27:34;100362.31;;;17.58;99.14
80323;BME280;69636;52.372;13.610;2023-09-19T00:30:01;100372.03;;;17.59;99.06
80323;BME280;69636;52.372;13.610;2023-09-19T00:32:28;100365.22;;;17.50;99.35
80323;BME280;69636;52.372;13.610;2023-09-19T00:34:56;100366.06;;;17.31;100.00
80323;BME280;69636;52.372;13.610;2023-09-19T00:37:23;100362.56;;;17.30;100.00
80323;BME280;69636;52.372;13.610;2023-09-19T00:39:52;100364.59;;;17.22;100.00
80323;BME280;69636;52.372;13.610;2023-09-19T00:42:19;100365.63;;;17.21;100.00
80323;BME280;69636;52.372;13.610;2023-09-19T00:44:47;100360.47;;;17.19;100.00
80323;BME280;69636;52.372;13.610;2023-09-19T00:47:14;100355.94;;;17.20;100.00
80323;BME280;69636;52.372;13.610;2023-09-19T00:49:42;100363.78;;;17.35;99.89
80323;BME280;69636;52.372;13.610;2023-09-19T00:52:10;100362.75;;;17.36;99.13
80323;BME280;69636;52.372;13.610;2023-09-19T00:54:38;100360.06;;;17.36;99.28
80323;BME280;69636;52.372;13.610;2023-09-19T00:57:08;100366.28;;;17.36;99.01
80323;BME280;69636;52.372;13.610;2023-09-19T00:59:35;100362.97;;;17.34;99.21
80323;BME280;69636;52.372;13.610;2023-09-19T01:02:03;100371.00;;;17.21;99.97
80323;BME280;69636;52.372;13.610;2023-09-19T01:04:30;100363.78;;;17.15;100.00
80323;BME280;69636;52.372;13.610;2023-09-19T01:06:58;100366.25;;;17.16;100.00
80323;BME280;69636;52.372;13.610;2023-09-19T01:09:25;100360.88;;;17.16;100.00
80323;BME280;69636;52.372;13.610;2023-09-19T01:12:02;100359.03;;;17.10;100.00
80323;BME280;69636;52.372;13.610;2023-09-19T01:14:39;100367.47;;;17.01;100.00
80323;BME280;69636;52.372;13.610;2023-09-19T01:17:15;100369.13;;;17.02;100.00
80323;BME280;69636;52.372;13.610;2023-09-19T01:22:58;100355.09;;;17.00;100.00
80323;BME280;69636;52.372;13.610;2023-09-19T01:28:30;100369.53;;;16.85;100.00
80323;BME280;69636;52.372;13.610;2023-09-19T01:31:02;100365.38;;;16.76;100.00
80323;BME280;69636;52.372;13.610;2023-09-19T01:33:58;100368.06;;;16.76;100.00
80323;BME280;69636;52.372;13.610;2023-09-19T01:36:27;100358.38;;;16.82;100.00
80323;BME280;69636;52.372;13.610;2023-09-19T01:38:55;100362.06;;;16.74;100.00
80323;BME280;69636;52.372;13.610;2023-09-19T01:41:29;100361.88;;;16.76;100.00
80323;BME280;69636;52.372;13.610;2023-09-19T01:44:03;100370.28;;;16.66;100.00
80323;BME280;69636;52.372;13.610;2023-09-19T01:46:39;100359.16;;;16.69;100.00
80323;BME280;69636;52.372;13.610;2023-09-19T01:49:24;100362.03;;;16.68;100.00
80323;BME280;69636;52.372;13.610;2023-09-19T01:51:58;100375.03;;;16.64;100.00
80323;BME280;69636;52.372;13.610;2023-09-19T01:54:32;100377.31;;;16.67;100.00
80323;BME280;69636;52.372;13.610;2023-09-19T01:57:05;100378.56;;;16.71;100.00
80323;BME280;69636;52.372;13.610;2023-09-19T01:59:39;100376.03;;;16.63;100.00
80323;BME280;69636;52.372;13.610;2023-09-19T02:02:10;100382.50;;;16.75;100.00
80323;BME280;69636;52.372;13.610;2023-09-19T02:04:39;100367.41;;;16.68;100.00
80323;BME280;69636;52.372;13.610;2023-09-19T02:07:06;100371.31;;;16.65;100.00
80323;BME280;69636;52.372;13.610;2023-09-19T02:09:33;100378.09;;;16.61;100.00
80323;BME280;69636;52.372;13.610;2023-09-19T02:12:01;100379.75;;;16.62;100.00
80323;BME280;69636;52.372;13.610;2023-09-19T02:14:28;100378.94;;;16.61;100.00
80323;BME280;69636;52.372;13.610;2023-09-19T02:16:56;100392.38;;;16.75;100.00
80323;BME280;69636;52.372;13.610;2023-09-19T02:19:24;100388.25;;;16.72;100.00
80323;BME280;69636;52.372;13.610;2023-09-19T02:21:52;100393.34;;;16.60;100.00
80323;BME280;69636;52.372;13.610;2023-09-19T02:24:19;100384.25;;;16.55;100.00
80323;BME280;69636;52.372;13.610;2023-09-19T02:26:46;100385.94;;;16.62;100.00
80323;BME280;69636;52.372;13.610;2023-09-19T02:29:13;100383.06;;;16.64;100.00
80323;BME280;69636;52.372;13.610;2023-09-19T02:31:41;100385.75;;;16.64;100.00
80323;BME280;69636;52.372;13.610;2023-09-19T02:34:10;100390.94;;;16.72;100.00
80323;BME280;69636;52.372;13.610;2023-09-19T02:36:39;100393.00;;;16.70;100.00
80323;BME280;69636;52.372;13.610;2023-09-19T02:39:06;100391.53;;;16.68;100.00
80323;BME280;69636;52.372;13.610;2023-09-19T02:41:34;100394.59;;;16.58;100.00
80323;BME280;69636;52.372;13.610;2023-09-19T02:44:01;100389.22;;;16.58;100.00
80323;BME280;69636;52.372;13.610;2023-09-19T02:46:28;100389.22;;;16.58;100.00
80323;BME280;69636;52.372;13.610;2023-09-19T02:48:56;100399.09;;;16.51;100.00
80323;BME280;69636;52.372;13.610;2023-09-19T02:51:23;100397.81;;;16.47;100.00
80323;BME280;69636;52.372;13.610;2023-09-19T02:53:52;100409.75;;;16.44;100.00
80323;BME280;69636;52.372;13.610;2023-09-19T02:56:19;100415.31;;;16.43;100.00
80323;BME280;69636;52.372;13.610;2023-09-19T02:58:47;100409.53;;;16.39;100.00
80323;BME280;69636;52.372;13.610;2023-09-19T03:01:14;100413.47;;;16.37;100.00
80323;BME280;69636;52.372;13.610;2023-09-19T03:03:42;100420.63;;;16.29;100.00
80323;BME280;69636;52.372;13.610;2023-09-19T03:06:19;100427.00;;;16.28;100.00
80323;BME280;69636;52.372;13.610;2023-09-19T03:08:46;100421.81;;;16.20;100.00
80323;BME280;69636;52.372;13.610;2023-09-19T03:11:24;100430.25;;;16.17;100.00
80323;BME280;69636;52.372;13.610;2023-09-19T03:13:52;100420.31;;;16.11;100.00
80323;BME280;69636;52.372;13.610;2023-09-19T03:16:20;100423.59;;;16.07;100.00
80323;BME280;69636;52.372;13.610;2023-09-19T03:18:48;100423.34;;;16.02;100.00
80323;BME280;69636;52.372;13.610;2023-09-19T03:21:15;100420.69;;;16.02;100.00
80323;BME280;69636;52.372;13.610;2023-09-19T03:23:55;100426.44;;;15.99;100.00
80323;BME280;69636;52.372;13.610;2023-09-19T03:26:23;100425.78;;;15.97;100.00
80323;BME280;69636;52.372;13.610;2023-09-19T03:28:51;100426.00;;;15.95;100.00
80323;BME280;69636;52.372;13.610;2023-09-19T03:31:18;100424.34;;;15.94;100.00
80323;BME280;69636;52.372;13.610;2023-09-19T03:33:46;100432.81;;;15.98;100.00
80323;BME280;69636;52.372;13.610;2023-09-19T03:36:13;100430.13;;;15.98;100.00
80323;BME280;69636;52.372;13.610;2023-09-19T03:38:41;100431.97;;;15.97;100.00
80323;BME280;69636;52.372;13.610;2023-09-19T03:41:08;100433.00;;;15.96;100.00
80323;BME280;69636;52.372;13.610;2023-09-19T03:43:36;100436.69;;;15.95;100.00
80323;BME280;69636;52.372;13.610;2023-09-19T03:46:04;100434.03;;;15.95;100.00
80323;BME280;69636;52.372;13.610;2023-09-19T03:48:32;100428.03;;;15.93;100.00
80323;BME280;69636;52.372;13.610;2023-09-19T03:50:59;100440.41;;;15.94;100.00
80323;BME280;69636;52.372;13.610;2023-09-19T03:53:26;100438.09;;;15.91;100.00
80323;BME280;69636;52.372;13.610;2023-09-19T03:55:54;100449.06;;;15.96;100.00
80323;BME280;69636;52.372;13.610;2023-09-19T03:58:21;100440.00;;;15.97;100.00
80323;BME280;69636;52.372;13.610;2023-09-19T04:00:50;100452.19;;;16.00;100.00
80323;BME280;69636;52.372;13.610;2023-09-19T04:03:17;100449.13;;;16.03;100.00
80323;BME280;69636;52.372;13.610;2023-09-19T04:05:45;100458.22;;;16.08;100.00
80323;BME280;69636;52.372;13.610;2023-09-19T04:08:12;100448.34;;;16.09;100.00
80323;BME280;69636;52.372;13.610;2023-09-19T04:10:41;100462.75;;;16.08;100.00
80323;BME280;69636;52.372;13.610;2023-09-19T04:13:09;100463.56;;;16.08;100.00
80323;BME280;69636;52.372;13.610;2023-09-19T04:15:36;100466.63;;;16.05;100.00
80323;BME280;69636;52.372;13.610;2023-09-19T04:18:05;100466.00;;;16.03;100.00
80323;BME280;69636;52.372;13.610;2023-09-19T04:20:32;100470.09;;;15.99;100.00
80323;BME280;69636;52.372;13.610;2023-09-19T04:23:00;100474.19;;;15.95;100.00
80323;BME280;69636;52.372;13.610;2023-09-19T04:25:27;100474.56;;;15.92;100.00
80323;BME280;69636;52.372;13.610;2023-09-19T04:27:54;100472.66;;;15.86;100.00
80323;BME280;69636;52.372;13.610;2023-09-19T04:30:22;100474.72;;;15.84;100.00
80323;BME280;69636;52.372;13.610;2023-09-19T04:32:49;100471.41;;;15.82;100.00
80323;BME280;69636;52.372;13.610;2023-09-19T04:35:18;100482.75;;;15.84;100.00
80323;BME280;69636;52.372;13.610;2023-09-19T04:37:45;100486.88;;;15.86;100.00
80323;BME280;69636;52.372;13.610;2023-09-19T04:40:13;100488.13;;;15.84;100.00
80323;BME280;69636;52.372;13.610;2023-09-19T04:42:40;100495.88;;;15.79;100.00
80323;BME280;69636;52.372;13.610;2023-09-19T04:45:08;100495.88;;;15.79;100.00
80323;BME280;69636;52.372;13.610;2023-09-19T04:47:36;100497.53;;;15.80;100.00
80323;BME280;69636;52.372;13.610;2023-09-19T04:50:06;100501.63;;;15.76;100.00
80323;BME280;69636;52.372;13.610;2023-09-19T04:52:35;100503.22;;;15.70;100.00
80323;BME280;69636;52.372;13.610;2023-09-19T04:55:02;100503.22;;;15.70;100.00
80323;BME280;69636;52.372;13.610;2023-09-19T04:57:30;100516.78;;;15.69;100.00
80323;BME280;69636;52.372;13.610;2023-09-19T04:59:57;100509.53;;;15.63;100.00
80323;BME280;69636;52.372;13.610;2023-09-19T05:02:24;100508.06;;;15.60;100.00
80323;BME280;69636;52.372;13.610;2023-09-19T05:04:52;100513.84;;;15.64;100.00
80323;BME280;69636;52.372;13.610;2023-09-19T05:07:19;100523.28;;;15.59;100.00
80323;BME280;69636;52.372;13.610;2023-09-19T05:09:48;100521.88;;;15.64;100.00
80323;BME280;69636;52.372;13.610;2023-09-19T05:12:15;100522.66;;;15.57;100.00
80323;BME280;69636;52.372;13.610;2023-09-19T05:14:42;100527.19;;;15.57;100.00
80323;BME280;69636;52.372;13.610;2023-09-19T05:17:09;100530.69;;;15.57;100.00
80323;BME280;69636;52.372;13.610;2023-09-19T05:19:37;100539.34;;;15.59;100.00
80323;BME280;69636;52.372;13.610;2023-09-19T05:22:04;100543.06;;;15.58;100.00
80323;BME280;69636;52.372;13.610;2023-09-19T05:24:31;100552.09;;;15.57;100.00
80323;BME280;69636;52.372;13.610;2023-09-19T05:27:00;100549.44;;;15.57;100.00
80323;BME280;69636;52.372;13.610;2023-09-19T05:29:27;100548.41;;;15.58;100.00
80323;BME280;69636;52.372;13.610;2023-09-19T05:31:54;100550.03;;;15.59;99.69
80323;BME280;69636;52.372;13.610;2023-09-19T05:34:22;100556.44;;;15.58;99.07
80323;BME280;69636;52.372;13.610;2023-09-19T05:36:49;100554.38;;;15.60;98.74
80323;BME280;69636;52.372;13.610;2023-09-19T05:39:17;100561.00;;;15.65;98.59
80323;BME280;69636;52.372;13.610;2023-09-19T05:41:44;100566.34;;;15.65;97.99
80323;BME280;69636;52.372;13.610;2023-09-19T05:44:13;100567.00;;;15.67;97.04
80323;BME280;69636;52.372;13.610;2023-09-19T05:46:40;100569.09;;;15.71;97.25
80323;BME280;69636;52.372;13.610;2023-09-19T05:49:07;100561.63;;;15.67;97.21
80323;BME280;69636;52.372;13.610;2023-09-19T05:51:35;100569.66;;;15.67;96.48
80323;BME280;69636;52.372;13.610;2023-09-19T05:54:02;100574.38;;;15.65;96.24
80323;BME280;69636;52.372;13.610;2023-09-19T05:56:29;100578.53;;;15.67;95.75
80323;BME280;69636;52.372;13.610;2023-09-19T05:58:57;100584.72;;;15.68;95.61
80323;BME280;69636;52.372;13.610;2023-09-19T06:01:25;100593.38;;;15.70;95.28
80323;BME280;69636;52.372;13.610;2023-09-19T06:03:53;100595.69;;;15.73;95.02
80323;BME280;69636;52.372;13.610;2023-09-19T06:06:20;100599.81;;;15.75;94.28
80323;BME280;69636;52.372;13.610;2023-09-19T06:08:47;100600.91;;;15.81;93.18
80323;BME280;69636;52.372;13.610;2023-09-19T06:11:15;100603.81;;;15.86;92.84
80323;BME280;69636;52.372;13.610;2023-09-19T06:13:43;100602.94;;;16.00;92.08
80323;BME280;69636;52.372;13.610;2023-09-19T06:16:10;100607.03;;;15.96;92.15
80323;BME280;69636;52.372;13.610;2023-09-19T06:18:39;100613.00;;;15.98;91.68
80323;BME280;69636;52.372;13.610;2023-09-19T06:21:06;100619.19;;;15.99;91.52
80323;BME280;69636;52.372;13.610;2023-09-19T06:23:34;100618.00;;;16.01;91.11
80323;BME280;69636;52.372;13.610;2023-09-19T06:26:01;100634.50;;;16.05;90.29
80323;BME280;69636;52.372;13.610;2023-09-19T06:28:29;100629.59;;;16.08;90.70
80323;BME280;69636;52.372;13.610;2023-09-19T06:30:56;100626.72;;;16.10;90.44
80323;BME280;69636;52.372;13.610;2023-09-19T06:33:23;100635.44;;;16.18;89.35
80323;BME280;69636;52.372;13.610;2023-09-19T06:35:52;100640.41;;;16.21;89.25
80323;BME280;69636;52.372;13.610;2023-09-19T06:38:19;100642.25;;;16.21;88.99
80323;BME280;69636;52.372;13.610;2023-09-19T06:40:47;100634.66;;;16.24;88.59
80323;BME280;69636;52.372;13.610;2023-09-19T06:43:14;100641.31;;;16.28;88.60
80323;BME280;69636;52.372;13.610;2023-09-19T06:45:41;100651.38;;;16.26;88.51
80323;BME280;69636;52.372;13.610;2023-09-19T06:48:09;100648.78;;;16.33;88.35
80323;BME280;69636;52.372;13.610;2023-09-19T06:50:36;100654.97;;;16.34;88.14
80323;BME280;69636;52.372;13.610;2023-09-19T06:53:05;100647.75;;;16.34;87.84
80323;BME280;69636;52.372;13.610;2023-09-19T06:55:32;100657.03;;;16.38;87.83
80323;BME280;69636;52.372;13.610;2023-09-19T06:58:00;100662.44;;;16.45;87.74
80323;BME280;69636;52.372;13.610;2023-09-19T07:00:27;100661.38;;;16.39;87.22
80323;BME280;69636;52.372;13.610;2023-09-19T07:02:56;100661.81;;;16.43;86.77
80323;BME280;69636;52.372;13.610;2023-09-19T07:05:23;100660.84;;;16.50;86.75
80323;BME280;69636;52.372;13.610;2023-09-19T07:07:50;100667.47;;;16.54;86.65
80323;BME280;69636;52.372;13.610;2023-09-19T07:10:19;100665.88;;;16.60;85.91
80323;BME280;69636;52.372;13.610;2023-09-19T07:12:46;100677.75;;;16.72;85.92
80323;BME280;69636;52.372;13.610;2023-09-19T07:15:14;100685.66;;;16.80;84.54
80323;BME280;69636;52.372;13.610;2023-09-19T07:17:41;100676.38;;;16.83;84.85
80323;BME280;69636;52.372;13.610;2023-09-19T07:20:09;100673.53;;;16.91;84.44
80323;BME280;69636;52.372;13.610;2023-09-19T07:22:36;100672.41;;;17.07;83.74
80323;BME280;69636;52.372;13.610;2023-09-19T07:25:04;100672.25;;;17.15;83.26
80323;BME280;69636;52.372;13.610;2023-09-19T07:27:33;100675.25;;;17.33;82.98
80323;BME280;69636;52.372;13.610;2023-09-19T07:30:00;100680.22;;;17.43;81.42
80323;BME280;69636;52.372;13.610;2023-09-19T07:32:28;100688.19;;;17.64;80.25
80323;BME280;69636;52.372;13.610;2023-09-19T07:34:55;100687.00;;;17.80;78.96
80323;BME280;69636;52.372;13.610;2023-09-19T07:37:23;100689.72;;;17.93;77.89
80323;BME280;69636;52.372;13.610;2023-09-19T07:39:50;100688.28;;;17.97;77.94
80323;BME280;69636;52.372;13.610;2023-09-19T07:42:17;100692.84;;;18.03;77.38
80323;BME280;69636;52.372;13.610;2023-09-19T07:44:46;100689.19;;;18.37;76.22
80323;BME280;69636;52.372;13.610;2023-09-19T07:47:14;100698.50;;;18.54;74.69
80323;BME280;69636;52.372;13.610;2023-09-19T07:49:41;100698.72;;;18.79;74.17
80323;BME280;69636;52.372;13.610;2023-09-19T07:52:08;100701.41;;;18.79;73.15
80323;BME280;69636;52.372;13.610;2023-09-19T07:54:36;100704.75;;;18.68;73.20
80323;BME280;69636;52.372;13.610;2023-09-19T07:57:04;100711.53;;;18.90;73.43
80323;BME280;69636;52.372;13.610;2023-09-19T07:59:31;100719.59;;;18.77;72.89
80323;BME280;69636;52.372;13.610;2023-09-19T08:02:00;100711.13;;;18.87;71.83
80323;BME280;69636;52.372;13.610;2023-09-19T08:04:27;100711.53;;;18.90;72.09
80323;BME280;69636;52.372;13.610;2023-09-19T08:06:54;100712.13;;;19.06;72.44
80323;BME280;69636;52.372;13.610;2023-09-19T08:09:22;100710.00;;;19.27;71.98
80323;BME280;69636;52.372;13.610;2023-09-19T08:11:52;100724.47;;;19.46;69.97
80323;BME280;69636;52.372;13.610;2023-09-19T08:14:19;100728.69;;;19.16;66.98
80323;BME280;69636;52.372;13.610;2023-09-19T08:16:46;100737.19;;;18.99;67.55
80323;BME280;69636;52.372;13.610;2023-09-19T08:19:16;100735.72;;;18.97;67.28
80323;BME280;69636;52.372;13.610;2023-09-19T08:21:43;100733.69;;;18.92;67.71
80323;BME280;69636;52.372;13.610;2023-09-19T08:24:10;100729.34;;;18.91;68.63
80323;BME280;69636;52.372;13.610;2023-09-19T08:26:37;100727.69;;;18.90;67.94
80323;BME280;69636;52.372;13.610;2023-09-19T08:29:05;100716.50;;;18.93;67.92
80323;BME280;69636;52.372;13.610;2023-09-19T08:31:33;100711.69;;;19.22;66.95
80323;BME280;69636;52.372;13.610;2023-09-19T08:34:00;100716.19;;;19.41;65.90
80323;BME280;69636;52.372;13.610;2023-09-19T08:36:30;100711.66;;;19.35;65.43
80323;BME280;69636;52.372;13.610;2023-09-19T08:38:57;100717.50;;;19.19;65.89
80323;BME280;69636;52.372;13.610;2023-09-19T08:41:24;100725.78;;;19.04;65.76
80323;BME280;69636;52.372;13.610;2023-09-19T08:43:51;100735.75;;;18.90;65.35
80323;BME280;69636;52.372;13.610;2023-09-19T08:46:20;100743.59;;;18.98;64.82
80323;BME280;69636;52.372;13.610;2023-09-19T08:48:54;100740.06;;;19.05;63.90
80323;BME280;69636;52.372;13.610;2023-09-19T08:51:27;100728.31;;;18.92;63.96
80323;BME280;69636;52.372;13.610;2023-09-19T08:54:03;100737.38;;;19.05;64.29
80323;BME280;69636;52.372;13.610;2023-09-19T08:56:33;100738.84;;;19.07;63.71
80323;BME280;69636;52.372;13.610;2023-09-19T08:59:03;100747.31;;;19.04;64.00
80323;BME280;69636;52.372;13.610;2023-09-19T09:01:31;100738.84;;;18.87;64.16
80323;BME280;69636;52.372;13.610;2023-09-19T09:03:59;100748.97;;;18.72;65.38
80323;BME280;69636;52.372;13.610;2023-09-19T09:06:29;100748.59;;;18.62;64.57
80323;BME280;69636;52.372;13.610;2023-09-19T09:08:57;100753.34;;;18.80;64.48
80323;BME280;69636;52.372;13.610;2023-09-19T09:11:26;100751.88;;;18.84;62.34
80323;BME280;69636;52.372;13.610;2023-09-19T09:13:53;100750.25;;;18.63;62.57
80323;BME280;69636;52.372;13.610;2023-09-19T09:16:20;100753.50;;;18.52;62.59
80323;BME280;69636;52.372;13.610;2023-09-19T09:18:49;100757.81;;;18.46;62.96
80323;BME280;69636;52.372;13.610;2023-09-19T09:21:16;100758.88;;;18.52;62.88
80323;BME280;69636;52.372;13.610;2023-09-19T09:23:43;100758.47;;;18.55;62.34
80323;BME280;69636;52.372;13.610;2023-09-19T09:26:11;100760.16;;;18.62;63.00
80323;BME280;69636;52.372;13.610;2023-09-19T09:28:45;100771.53;;;18.71;62.94
80323;BME280;69636;52.372;13.610;2023-09-19T09:31:22;100765.13;;;18.92;61.82
80323;BME280;69636;52.372;13.610;2023-09-19T09:33:53;100774.63;;;19.08;60.43
80323;BME280;69636;52.372;13.610;2023-09-19T09:36:33;100771.69;;;19.36;60.75
80323;BME280;69636;52.372;13.610;2023-09-19T09:39:01;100762.38;;;19.25;57.70
80323;BME280;69636;52.372;13.610;2023-09-19T09:41:36;100775.47;;;19.15;57.62
80323;BME280;69636;52.372;13.610;2023-09-19T09:44:12;100780.59;;;19.36;58.05
80323;BME280;69636;52.372;13.610;2023-09-19T09:46:42;100784.13;;;19.43;57.42
80323;BME280;69636;52.372;13.610;2023-09-19T09:49:10;100785.97;;;19.43;56.12
80323;BME280;69636;52.372;13.610;2023-09-19T09:51:37;100788.88;;;19.48;56.94
80323;BME280;69636;52.372;13.610;2023-09-19T09:54:11;100795.69;;;19.63;56.98
80323;BME280;69636;52.372;13.610;2023-09-19T09:56:52;100796.47;;;19.77;56.61
80323;BME280;69636;52.372;13.610;2023-09-19T09:59:21;100786.19;;;19.28;55.57
80323;BME280;69636;52.372;13.610;2023-09-19T10:01:50;100789.50;;;19.37;56.26
80323;BME280;69636;52.372;13.610;2023-09-19T10:04:27;100784.31;;;19.61;55.40
80323;BME280;69636;52.372;13.610;2023-09-19T10:06:55;100770.94;;;19.86;53.50
80323;BME280;69636;52.372;13.610;2023-09-19T10:09:23;100795.63;;;19.77;51.89
80323;BME280;69636;52.372;13.610;2023-09-19T10:12:03;100799.63;;;19.61;50.73
80323;BME280;69636;52.372;13.610;2023-09-19T10:14:35;100790.69;;;19.74;52.18
80323;BME280;69636;52.372;13.610;2023-09-19T10:17:04;100791.44;;;20.01;52.29
80323;BME280;69636;52.372;13.610;2023-09-19T10:19:36;100794.38;;;19.86;51.91
80323;BME280;69636;52.372;13.610;2023-09-19T10:22:05;100797.25;;;19.91;50.81
80323;BME280;69636;52.372;13.610;2023-09-19T10:24:33;100793.81;;;19.71;51.57
80323;BME280;69636;52.372;13.610;2023-09-19T10:27:06;100794.38;;;19.79;52.39
80323;BME280;69636;52.372;13.610;2023-09-19T10:29:35;100802.56;;;20.04;51.82
80323;BME280;69636;52.372;13.610;2023-09-19T10:32:03;100797.88;;;20.38;51.36
80323;BME280;69636;52.372;13.610;2023-09-19T10:34:35;100788.69;;;20.52;50.89
80323;BME280;69636;52.372;13.610;2023-09-19T10:37:04;100794.94;;;21.02;50.86
80323;BME280;69636;52.372;13.610;2023-09-19T10:39:32;100791.66;;;21.25;47.49
80323;BME280;69636;52.372;13.610;2023-09-19T10:42:02;100795.69;;;21.09;46.69
80323;BME280;69636;52.372;13.610;2023-09-19T10:44:32;100791.56;;;21.07;47.38
80323;BME280;69636;52.372;13.610;2023-09-19T10:47:01;100783.03;;;20.85;47.03
80323;BME280;69636;52.372;13.610;2023-09-19T10:49:29;100776.97;;;20.89;46.56
80323;BME280;69636;52.372;13.610;2023-09-19T10:51:59;100781.09;;;21.17;46.53
80323;BME280;69636;52.372;13.610;2023-09-19T10:54:31;100778.06;;;21.07;44.09
80323;BME280;69636;52.372;13.610;2023-09-19T10:57:00;100780.28;;;20.91;44.33
80323;BME280;69636;52.372;13.610;2023-09-19T10:59:27;100781.88;;;20.74;45.02
80323;BME280;69636;52.372;13.610;2023-09-19T11:01:56;100784.59;;;20.74;43.59
80323;BME280;69636;52.372;13.610;2023-09-19T11:04:26;100787.59;;;20.84;44.11
80323;BME280;69636;52.372;13.610;2023-09-19T11:07:05;100783.84;;;20.85;45.13
80323;BME280;69636;52.372;13.610;2023-09-19T11:09:46;100784.63;;;20.92;44.98
80323;BME280;69636;52.372;13.610;2023-09-19T11:12:48;100782.97;;;20.91;44.60
80323;BME280;69636;52.372;13.610;2023-09-19T11:18:53;100784.63;;;20.92;42.76
80323;BME280;69636;52.372;13.610;2023-09-19T11:21:53;100775.28;;;20.70;44.26
80323;BME280;69636;52.372;13.610;2023-09-19T11:24:30;100787.00;;;20.82;44.65
80323;BME280;69636;52.372;13.610;2023-09-19T11:27:15;100784.41;;;20.94;44.90
80323;BME280;69636;52.372;13.610;2023-09-19T11:29:42;100793.22;;;20.83;44.32
80323;BME280;69636;52.372;13.610;2023-09-19T11:32:10;100786.28;;;20.93;44.82
80323;BME280;69636;52.372;13.610;2023-09-19T11:34:38;100790.69;;;21.13;44.90
80323;BME280;69636;52.372;13.610;2023-09-19T11:40:08;100797.47;;;20.97;46.20
80323;BME280;69636;52.372;13.610;2023-09-19T11:42:43;100804.28;;;20.75;46.35
80323;BME280;69636;52.372;13.610;2023-09-19T11:48:18;100809.50;;;20.31;47.74
80323;BME280;69636;52.372;13.610;2023-09-19T11:50:46;100794.31;;;20.44;47.44
80323;BME280;69636;52.372;13.610;2023-09-19T11:53:14;100803.38;;;20.56;47.26
80323;BME280;69636;52.372;13.610;2023-09-19T11:55:43;100795.69;;;20.53;48.04
80323;BME280;69636;52.372;13.610;2023-09-19T11:58:12;100798.88;;;20.50;47.71
80323;BME280;69636;52.372;13.610;2023-09-19T12:00:44;100804.34;;;20.68;47.07
80323;BME280;69636;52.372;13.610;2023-09-19T12:03:12;100798.81;;;20.81;47.20
80323;BME280;69636;52.372;13.610;2023-09-19T12:05:40;100804.31;;;20.99;46.26
80323;BME280;69636;52.372;13.610;2023-09-19T12:08:07;100809.97;;;20.91;44.98
80323;BME280;69636;52.372;13.610;2023-09-19T12:10:45;100806.00;;;20.69;46.53
80323;BME280;69636;52.372;13.610;2023-09-19T12:13:16;100807.53;;;20.83;46.32
80323;BME280;69636;52.372;13.610;2023-09-19T12:15:44;100816.84;;;20.56;46.18
80323;BME280;69636;52.372;13.610;2023-09-19T12:18:25;100807.53;;;20.83;45.78
80323;BME280;69636;52.372;13.610;2023-09-19T12:20:53;100817.03;;;20.92;46.16
80323;BME280;69636;52.372;13.610;2023-09-19T12:23:20;100808.88;;;20.74;45.20
80323;BME280;69636;52.372;13.610;2023-09-19T12:25:49;100811.19;;;20.95;45.62
80323;BME280;69636;52.372;13.610;2023-09-19T12:28:16;100820.13;;;21.21;45.27
80323;BME280;69636;52.372;13.610;2023-09-19T12:30:44;100814.41;;;21.90;44.29
80323;BME280;69636;52.372;13.610;2023-09-19T12:33:16;100806.50;;;22.55;43.55
80323;BME280;69636;52.372;13.610;2023-09-19T12:35:43;100812.91;;;22.73;42.05
80323;BME280;69636;52.372;13.610;2023-09-19T12:38:10;100803.47;;;23.05;42.81
80323;BME280;69636;52.372;13.610;2023-09-19T12:40:39;100815.63;;;23.61;40.70
80323;BME280;69636;52.372;13.610;2023-09-19T12:43:08;100811.16;;;23.55;39.79
80323;BME280;69636;52.372;13.610;2023-09-19T12:45:36;100815.81;;;23.48;39.54
80323;BME280;69636;52.372;13.610;2023-09-19T12:48:20;100802.75;;;23.45;40.03
80323;BME280;69636;52.372;13.610;2023-09-19T12:51:03;100821.03;;;23.38;40.26
80323;BME280;69636;52.372;13.610;2023-09-19T12:53:32;100799.69;;;23.76;39.55
80323;BME280;69636;52.372;13.610;2023-09-19T12:56:00;100801.09;;;23.79;39.01
80323;BME280;69636;52.372;13.610;2023-09-19T12:58:29;100802.72;;;24.31;38.67
80323;BME280;69636;52.372;13.610;2023-09-19T13:00:57;100792.78;;;23.97;38.51